Time;durP1;ratioP1;P1;durP2;ratioP2;P2;SDS_P1;SDS_P2;PMS_P1;PMS_P2;Temp;Humidity;BMP_temperature;BMP_pressure;BME280_temperature;BME280_humidity;BME280_pressure;Samples;Min_cycle;Max_cycle;Signal;HPM_P1;HPM_P2
2024/01/21 00:00:08;;;;;;;;;;;;;;;-2.66;63.45;99319.16;5093264;28;19931;-76
2024/01/21 00:02:58;;;;;;;;;;;;;;;-2.71;63.92;99316.25;5084744;28;20411;-72
2024/01/21 00:05:48;;;;;;;;;;;;;;;-2.93;64.02;99314.59;5092177;28;19935;-73
2024/01/21 00:08:36;;;;;;;;;;;;;;;-2.93;63.81;99307.47;5091709;28;19931;-72
2024/01/21 00:11:26;;;;;;;;;;;;;;;-2.97;63.89;99302.72;5090417;28;19928;-74
2024/01/21 00:14:15;;;;;;;;;;;;;;;-2.92;64.36;99302.97;5089811;28;19973;-72
2024/01/21 00:17:04;;;;;;;;;;;;;;;-2.96;63.83;99302.50;5090744;28;19924;-74
2024/01/21 00:19:56;;;;;;;;;;;;;;;-2.85;63.60;99298.53;5084920;28;20012;-73
2024/01/21 00:22:45;;;;;;;;;;;;;;;-2.87;63.70;99300.56;5093752;28;19952;-73
2024/01/21 00:25:34;;;;;;;;;;;;;;;-2.85;63.27;99295.88;5090983;28;19924;-76
2024/01/21 00:28:21;;;;;;;;;;;;;;;-2.83;63.59;99291.16;5085530;28;20402;-73
2024/01/21 00:31:10;;;;;;;;;;;;;;;-2.97;63.38;99279.59;5101480;28;20452;-74
2024/01/21 00:33:58;;;;;;;;;;;;;;;-3.05;63.59;99278.91;5090941;28;19958;-74
2024/01/21 00:36:47;;;;;;;;;;;;;;;-2.90;63.11;99274.34;5088776;28;19932;-73
2024/01/21 00:39:37;;;;;;;;;;;;;;;-3.00;63.55;99279.97;5091671;28;19935;-74
2024/01/21 00:42:26;;;;;;;;;;;;;;;-2.97;63.99;99268.16;5093596;28;19990;-73
2024/01/21 00:45:14;;;;;;;;;;;;;;;-3.14;63.57;99266.72;5091284;28;20011;-74
2024/01/21 00:48:02;;;;;;;;;;;;;;;-3.17;63.86;99257.31;5092397;28;19925;-76
2024/01/21 00:50:51;;;;;;;;;;;;;;;-3.11;63.54;99250.41;5086876;28;19931;-75
2024/01/21 00:53:41;;;;;;;;;;;;;;;-3.21;63.67;99245.41;5096618;28;20013;-73
2024/01/21 00:56:30;;;;;;;;;;;;;;;-3.18;63.83;99248.53;5085403;28;19925;-74
2024/01/21 00:59:20;;;;;;;;;;;;;;;-3.03;62.98;99243.16;5091599;28;20563;-75
2024/01/21 01:02:10;;;;;;;;;;;;;;;-3.20;63.46;99250.53;5092069;28;21265;-73
2024/01/21 01:04:58;;;;;;;;;;;;;;;-3.19;63.34;99246.88;5112987;28;19924;-76
2024/01/21 01:07:49;;;;;;;;;;;;;;;-3.00;63.27;99239.25;5106428;28;19990;-76
2024/01/21 01:10:37;;;;;;;;;;;;;;;-3.21;63.16;99235.59;5096431;28;20406;-74
2024/01/21 01:13:27;;;;;;;;;;;;;;;-3.05;62.91;99233.69;5088851;28;20456;-73
2024/01/21 01:16:15;;;;;;;;;;;;;;;-3.13;62.58;99241.81;5089518;28;20299;-80
2024/01/21 01:19:03;;;;;;;;;;;;;;;-2.94;62.67;99241.97;5094521;28;19947;-73
2024/01/21 01:21:52;;;;;;;;;;;;;;;-3.04;62.32;99238.81;5109601;28;19928;-74
2024/01/21 01:24:41;;;;;;;;;;;;;;;-2.96;62.77;99236.03;5100131;28;19947;-74
2024/01/21 01:27:29;;;;;;;;;;;;;;;-2.87;62.50;99230.59;5084738;28;19924;-75
2024/01/21 01:30:19;;;;;;;;;;;;;;;-2.95;61.97;99228.88;5095073;28;20295;-73
2024/01/21 01:33:07;;;;;;;;;;;;;;;-2.85;61.85;99229.38;5098956;28;19924;-73
2024/01/21 01:35:55;;;;;;;;;;;;;;;-3.05;61.68;99229.19;5106803;28;19989;-73
2024/01/21 01:38:44;;;;;;;;;;;;;;;-2.93;61.46;99226.84;5090811;28;19931;-76
2024/01/21 01:41:33;;;;;;;;;;;;;;;-3.19;62.04;99212.34;5101707;28;19931;-73
2024/01/21 01:44:22;;;;;;;;;;;;;;;-3.33;62.05;99215.88;5098288;28;19936;-73
2024/01/21 01:47:11;;;;;;;;;;;;;;;-3.28;62.15;99208.16;5099807;28;19924;-76
2024/01/21 01:49:59;;;;;;;;;;;;;;;-3.16;62.15;99208.44;5095685;28;19928;-76
2024/01/21 01:52:49;;;;;;;;;;;;;;;-3.35;62.07;99207.28;5086162;28;19924;-73
2024/01/21 01:55:37;;;;;;;;;;;;;;;-3.31;62.31;99203.19;5093737;28;19924;-75
2024/01/21 01:58:27;;;;;;;;;;;;;;;-3.31;61.99;99208.50;5089423;28;19935;-72
2024/01/21 02:01:15;;;;;;;;;;;;;;;-3.48;62.54;99209.78;5091935;28;20069;-74
2024/01/21 02:04:06;;;;;;;;;;;;;;;-3.51;63.06;99213.66;5095478;28;19924;-73
2024/01/21 02:06:54;;;;;;;;;;;;;;;-3.35;62.64;99207.28;5075818;28;19931;-74
2024/01/21 02:09:42;;;;;;;;;;;;;;;-3.39;62.55;99189.25;5090025;28;19966;-75
2024/01/21 02:12:30;;;;;;;;;;;;;;;-3.27;61.81;99191.19;5089380;28;19924;-75
2024/01/21 02:15:19;;;;;;;;;;;;;;;-3.22;62.18;99190.63;5088669;28;19930;-74
2024/01/21 02:18:07;;;;;;;;;;;;;;;-3.21;61.73;99181.63;5088771;28;19928;-74
2024/01/21 02:20:56;;;;;;;;;;;;;;;-3.17;61.56;99183.72;5093137;28;19932;-73
2024/01/21 02:23:46;;;;;;;;;;;;;;;-3.02;61.35;99177.50;5094583;28;20399;-73
2024/01/21 02:26:34;;;;;;;;;;;;;;;-3.25;61.85;99178.53;5096312;28;19932;-75
2024/01/21 02:29:22;;;;;;;;;;;;;;;-3.18;61.70;99186.56;5092893;28;19931;-74
2024/01/21 02:32:11;;;;;;;;;;;;;;;-3.31;62.71;99191.75;5096920;28;19924;-76
2024/01/21 02:35:00;;;;;;;;;;;;;;;-3.29;62.64;99184.44;5097406;28;19989;-76
2024/01/21 02:37:48;;;;;;;;;;;;;;;-3.39;62.86;99195.38;5095437;28;19939;-75
2024/01/21 02:40:38;;;;;;;;;;;;;;;-3.45;63.30;99190.81;5092826;28;19928;-76
2024/01/21 02:43:26;;;;;;;;;;;;;;;-3.24;62.66;99182.84;5088387;28;19928;-75
2024/01/21 02:46:15;;;;;;;;;;;;;;;-3.39;63.22;99174.13;5094663;28;19931;-73
2024/01/21 02:49:03;;;;;;;;;;;;;;;-3.47;62.76;99180.38;5094683;28;19924;-74
2024/01/21 02:51:51;;;;;;;;;;;;;;;-3.47;63.50;99167.09;5092462;28;19988;-74
2024/01/21 02:54:39;;;;;;;;;;;;;;;-3.65;63.22;99172.03;5085640;28;19924;-77
2024/01/21 02:57:29;;;;;;;;;;;;;;;-3.51;63.36;99171.16;5094041;28;19931;-73
2024/01/21 03:00:17;;;;;;;;;;;;;;;-3.59;63.52;99167.78;5094340;28;19978;-78
2024/01/21 03:03:05;;;;;;;;;;;;;;;-3.66;63.45;99164.25;5095721;28;19997;-73
2024/01/21 03:05:54;;;;;;;;;;;;;;;-3.67;63.25;99160.78;5109781;28;19995;-77
2024/01/21 03:08:42;;;;;;;;;;;;;;;-3.65;63.74;99163.22;5093687;28;19969;-75
2024/01/21 03:11:30;;;;;;;;;;;;;;;-3.74;63.74;99159.88;5096731;28;19928;-77
2024/01/21 03:14:19;;;;;;;;;;;;;;;-3.59;63.69;99160.63;5094903;28;19924;-74
2024/01/21 03:17:09;;;;;;;;;;;;;;;-3.44;63.69;99163.22;5096823;28;19924;-75
2024/01/21 03:19:57;;;;;;;;;;;;;;;-3.41;62.76;99157.53;5092968;28;20011;-74
2024/01/21 03:22:45;;;;;;;;;;;;;;;-3.58;63.38;99154.31;5097448;28;20306;-72
2024/01/21 03:25:33;;;;;;;;;;;;;;;-3.63;63.59;99145.25;5093899;28;20024;-75
2024/01/21 03:28:23;;;;;;;;;;;;;;;-3.34;62.84;99153.13;5090699;28;19925;-74
2024/01/21 03:31:12;;;;;;;;;;;;;;;-3.29;63.37;99161.34;5094189;28;19987;-71
2024/01/21 03:34:00;;;;;;;;;;;;;;;-3.13;62.60;99146.13;5093114;28;19939;-72
2024/01/21 03:36:48;;;;;;;;;;;;;;;-3.20;62.86;99151.38;5097044;28;19931;-74
2024/01/21 03:39:37;;;;;;;;;;;;;;;-2.98;62.58;99145.03;5083171;28;19924;-71
2024/01/21 03:42:25;;;;;;;;;;;;;;;-2.99;61.86;99151.31;5083623;28;20285;-72
2024/01/21 03:45:13;;;;;;;;;;;;;;;-3.03;62.22;99138.63;5090792;28;20399;-73
2024/01/21 03:48:03;;;;;;;;;;;;;;;-3.12;62.04;99135.28;5084467;28;19924;-72
2024/01/21 03:50:51;;;;;;;;;;;;;;;-2.92;62.26;99133.59;5093777;28;19924;-74
2024/01/21 03:53:40;;;;;;;;;;;;;;;-3.02;61.61;99140.28;5081190;28;19971;-72
2024/01/21 03:56:28;;;;;;;;;;;;;;;-3.08;61.75;99141.06;5079827;28;20377;-74
2024/01/21 03:59:16;;;;;;;;;;;;;;;-3.08;61.90;99136.56;5091750;28;19952;-73
2024/01/21 04:02:04;;;;;;;;;;;;;;;-3.17;62.43;99129.72;5093438;28;20074;-73
2024/01/21 04:04:54;;;;;;;;;;;;;;;-3.38;62.54;99133.25;5094016;28;19935;-73
2024/01/21 04:07:42;;;;;;;;;;;;;;;-3.30;62.45;99129.63;5094742;28;20379;-71
2024/01/21 04:10:30;;;;;;;;;;;;;;;-3.39;63.03;99126.28;5093763;28;20268;-72
2024/01/21 04:13:18;;;;;;;;;;;;;;;-3.15;62.45;99119.72;5094762;28;19993;-74
2024/01/21 04:16:06;;;;;;;;;;;;;;;-3.47;62.53;99113.13;5095615;28;20012;-73
2024/01/21 04:18:54;;;;;;;;;;;;;;;-3.42;62.35;99102.75;5087546;28;20376;-73
2024/01/21 04:21:44;;;;;;;;;;;;;;;-3.38;62.26;99106.66;5082973;28;19924;-73
2024/01/21 04:24:32;;;;;;;;;;;;;;;-3.56;62.70;99108.97;5093914;28;19968;-73
2024/01/21 04:27:20;;;;;;;;;;;;;;;-3.48;62.41;99114.16;5097241;28;19924;-71
2024/01/21 04:30:09;;;;;;;;;;;;;;;-3.57;62.36;99102.84;5100691;28;20045;-72
2024/01/21 04:32:57;;;;;;;;;;;;;;;-3.61;62.79;99106.91;5089976;28;19935;-71
2024/01/21 04:35:45;;;;;;;;;;;;;;;-3.53;62.31;99103.28;5091964;28;19924;-71
2024/01/21 04:38:35;;;;;;;;;;;;;;;-3.87;62.67;99096.84;5086832;28;19932;-73
2024/01/21 04:41:23;;;;;;;;;;;;;;;-3.83;63.53;99098.13;5096383;28;19932;-71
2024/01/21 04:44:11;;;;;;;;;;;;;;;-3.73;63.23;99095.97;5093213;28;19924;-74
2024/01/21 04:46:59;;;;;;;;;;;;;;;-3.79;62.88;99093.22;5090256;28;19928;-72
2024/01/21 04:49:47;;;;;;;;;;;;;;;-3.79;63.57;99095.88;5095596;28;20053;-72
2024/01/21 04:52:35;;;;;;;;;;;;;;;-3.79;62.93;99091.38;5090173;28;19938;-71
2024/01/21 04:55:25;;;;;;;;;;;;;;;-3.71;62.83;99093.94;5095632;28;19928;-72
2024/01/21 04:58:13;;;;;;;;;;;;;;;-3.70;62.56;99098.22;5092635;28;20384;-72
2024/01/21 05:01:01;;;;;;;;;;;;;;;-3.77;62.58;99097.34;5095161;28;19924;-72
2024/01/21 05:03:50;;;;;;;;;;;;;;;-3.66;62.94;99100.50;5085739;28;20392;-71
2024/01/21 05:06:38;;;;;;;;;;;;;;;-3.43;62.31;99091.31;5089382;28;19928;-74
2024/01/21 05:09:26;;;;;;;;;;;;;;;-3.58;61.78;99090.56;5095900;28;19928;-71
2024/01/21 05:12:16;;;;;;;;;;;;;;;-3.24;62.21;99099.63;5095180;28;20297;-72
2024/01/21 05:15:04;;;;;;;;;;;;;;;-3.28;61.64;99088.56;5095916;28;19924;-72
2024/01/21 05:17:56;;;;;;;;;;;;;;;-3.18;61.33;99097.03;5096554;28;19981;-71
2024/01/21 05:20:44;;;;;;;;;;;;;;;-2.98;60.75;99104.31;5098863;28;19971;-72
2024/01/21 05:23:33;;;;;;;;;;;;;;;-3.01;61.33;99094.88;5096969;28;20533;-72
2024/01/21 05:26:21;;;;;;;;;;;;;;;-3.07;60.82;99090.34;5092559;28;20315;-71
2024/01/21 05:29:10;;;;;;;;;;;;;;;-2.95;60.51;99079.97;5096979;28;19928;-73
2024/01/21 05:31:59;;;;;;;;;;;;;;;-2.92;60.34;99074.28;5084031;28;19935;-72
2024/01/21 05:34:47;;;;;;;;;;;;;;;-2.88;60.03;99085.31;5089300;28;19935;-71
2024/01/21 05:37:35;;;;;;;;;;;;;;;-3.09;60.50;99080.91;5093455;28;19924;-75
2024/01/21 05:40:23;;;;;;;;;;;;;;;-3.05;60.54;99079.50;5095614;28;19924;-73
2024/01/21 05:43:11;;;;;;;;;;;;;;;-2.72;59.66;99083.16;5097228;28;19931;-72
2024/01/21 05:46:00;;;;;;;;;;;;;;;-2.75;59.70;99080.09;5094306;28;19928;-72
2024/01/21 05:48:49;;;;;;;;;;;;;;;-2.80;60.00;99072.72;5085344;28;20629;-73
2024/01/21 05:51:41;;;;;;;;;;;;;;;-2.90;60.25;99086.34;5083893;28;19928;-74
2024/01/21 05:54:29;;;;;;;;;;;;;;;-2.81;59.25;99086.22;5089449;28;20000;-71
2024/01/21 05:57:17;;;;;;;;;;;;;;;-3.10;60.33;99089.91;5077356;28;19961;-73
2024/01/21 06:00:06;;;;;;;;;;;;;;;-2.84;59.94;99090.06;5092000;28;19928;-74
2024/01/21 06:03:00;;;;;;;;;;;;;;;-2.85;60.18;99095.59;5088077;28;20387;-75
2024/01/21 06:05:48;;;;;;;;;;;;;;;-2.75;59.53;99102.19;5086463;28;19924;-74
2024/01/21 06:08:36;;;;;;;;;;;;;;;-2.79;60.11;99113.41;5093437;28;19924;-73
2024/01/21 06:11:26;;;;;;;;;;;;;;;-2.62;59.47;99117.41;5093536;28;19931;-72
2024/01/21 06:14:14;;;;;;;;;;;;;;;-2.81;59.74;99121.59;5094150;28;20371;-75
2024/01/21 06:17:02;;;;;;;;;;;;;;;-2.77;59.59;99117.53;5102449;28;19924;-80
2024/01/21 06:19:51;;;;;;;;;;;;;;;-2.64;59.48;99117.59;5088977;28;20431;-73
2024/01/21 06:22:39;;;;;;;;;;;;;;;-2.70;59.45;99126.38;5093565;28;19924;-74
2024/01/21 06:25:28;;;;;;;;;;;;;;;-2.88;59.14;99118.06;5082852;28;20387;-72
2024/01/21 06:28:16;;;;;;;;;;;;;;;-3.18;60.24;99120.13;5088531;28;19928;-73
2024/01/21 06:31:04;;;;;;;;;;;;;;;-2.94;60.02;99116.19;5090537;28;19935;-72
2024/01/21 06:33:52;;;;;;;;;;;;;;;-2.91;59.88;99113.16;5088256;28;19928;-72
2024/01/21 06:36:42;;;;;;;;;;;;;;;-2.80;59.79;99112.59;5089119;28;19981;-72
2024/01/21 06:39:30;;;;;;;;;;;;;;;-2.59;58.56;99110.88;5086143;28;19936;-72
2024/01/21 06:42:18;;;;;;;;;;;;;;;-2.71;58.72;99108.78;5085067;28;19960;-73
2024/01/21 06:45:12;;;;;;;;;;;;;;;-2.87;59.17;99114.41;5086458;28;19932;-71
2024/01/21 06:48:00;;;;;;;;;;;;;;;-2.89;58.97;99108.44;5083575;28;19993;-76
2024/01/21 06:50:50;;;;;;;;;;;;;;;-2.98;59.38;99106.97;5091175;28;19924;-72
2024/01/21 06:53:40;;;;;;;;;;;;;;;-2.77;59.33;99103.41;5093933;28;20017;-74
2024/01/21 06:56:28;;;;;;;;;;;;;;;-2.79;59.26;99095.63;5093859;28;20091;-72
2024/01/21 06:59:17;;;;;;;;;;;;;;;-2.86;59.74;99089.44;5089084;28;20494;-72
2024/01/21 07:02:05;;;;;;;;;;;;;;;-2.71;59.42;99097.31;5083784;28;20018;-73
2024/01/21 07:04:53;;;;;;;;;;;;;;;-2.56;59.42;99107.81;5085156;28;20018;-72
2024/01/21 07:07:41;;;;;;;;;;;;;;;-2.52;58.99;99106.41;5088299;28;19934;-71
2024/01/21 07:10:31;;;;;;;;;;;;;;;-2.50;58.54;99113.19;5085775;28;19943;-71
2024/01/21 07:13:21;;;;;;;;;;;;;;;-2.62;58.80;99112.06;5084951;28;19931;-73
2024/01/21 07:16:10;;;;;;;;;;;;;;;-2.67;59.06;99109.19;5088350;28;19924;-72
2024/01/21 07:18:59;;;;;;;;;;;;;;;-2.46;57.98;99110.91;5083661;28;19939;-72
2024/01/21 07:21:47;;;;;;;;;;;;;;;-2.67;58.36;99107.34;5084706;28;20014;-73
2024/01/21 07:24:36;;;;;;;;;;;;;;;-2.74;59.37;99109.16;5082873;28;19931;-72
2024/01/21 07:27:27;;;;;;;;;;;;;;;-2.72;59.14;99101.78;5085052;28;19932;-73
2024/01/21 07:30:17;;;;;;;;;;;;;;;-2.55;58.78;99109.47;5083149;28;19924;-74
2024/01/21 07:33:05;;;;;;;;;;;;;;;-2.77;59.26;99111.38;5095885;28;19928;-74
2024/01/21 07:35:55;;;;;;;;;;;;;;;-2.75;59.19;99114.69;5098077;28;20058;-76
2024/01/21 07:38:43;;;;;;;;;;;;;;;-2.58;58.79;99113.31;5085787;28;19960;-75
2024/01/21 07:41:31;;;;;;;;;;;;;;;-2.34;58.97;99109.34;5109981;22;20057;-58
2024/01/21 07:44:21;;;;;;;;;;;;;;;-2.39;59.26;99112.59;5085615;28;19956;-56
2024/01/21 07:47:09;;;;;;;;;;;;;;;-2.38;59.11;99113.44;5082317;28;19952;-56
2024/01/21 07:49:56;;;;;;;;;;;;;;;-2.31;59.27;99116.94;5090225;28;19928;-55
2024/01/21 07:52:45;;;;;;;;;;;;;;;-2.21;59.02;99130.69;5090252;28;19932;-57
2024/01/21 07:55:33;;;;;;;;;;;;;;;-2.15;59.06;99127.22;5094766;28;20410;-56
2024/01/21 07:58:21;;;;;;;;;;;;;;;-1.98;58.99;99134.84;5092101;28;19920;-55
2024/01/21 08:01:11;;;;;;;;;;;;;;;-1.81;58.41;99117.50;5082037;28;19967;-55
2024/01/21 08:04:00;;;;;;;;;;;;;;;-2.00;59.67;99120.94;5080718;28;19920;-56
2024/01/21 08:06:48;;;;;;;;;;;;;;;-1.96;59.35;99116.84;5084279;28;19920;-58
2024/01/21 08:09:37;;;;;;;;;;;;;;;-1.96;59.17;99112.34;5084124;28;19932;-56
2024/01/21 08:12:25;;;;;;;;;;;;;;;-1.78;58.95;99103.78;5085786;28;19924;-56
2024/01/21 08:15:13;;;;;;;;;;;;;;;-1.70;58.95;99106.25;5088359;28;19926;-57
2024/01/21 08:18:03;;;;;;;;;;;;;;;-1.67;58.89;99111.16;5084501;28;20369;-58
2024/01/21 08:20:52;;;;;;;;;;;;;;;-1.51;58.41;99103.81;5078690;28;19920;-55
2024/01/21 08:23:41;;;;;;;;;;;;;;;-1.36;57.92;99094.59;5084876;28;19921;-56
2024/01/21 08:26:29;;;;;;;;;;;;;;;-1.16;57.49;99099.91;5081104;28;19943;-55
2024/01/21 08:29:17;;;;;;;;;;;;;;;-1.17;57.17;99100.94;5083498;28;20369;-56
2024/01/21 08:32:07;;;;;;;;;;;;;;;-1.17;57.20;99090.28;5087294;28;19931;-54
2024/01/21 08:34:57;;;;;;;;;;;;;;;-0.97;56.97;99092.09;5088276;28;20065;-55
2024/01/21 08:37:45;;;;;;;;;;;;;;;-0.95;56.89;99092.72;5081509;28;20266;-56
2024/01/21 08:40:33;;;;;;;;;;;;;;;-0.76;56.21;99089.16;5088063;28;19962;-56
2024/01/21 08:43:21;;;;;;;;;;;;;;;-0.79;56.65;99084.25;5087616;28;19920;-55
2024/01/21 08:46:11;;;;;;;;;;;;;;;-0.97;56.46;99086.75;5089271;28;20384;-55
2024/01/21 08:48:59;;;;;;;;;;;;;;;-0.74;56.52;99083.66;5078834;28;19920;-55
2024/01/21 08:51:48;;;;;;;;;;;;;;;-0.63;56.80;99088.31;5084677;28;19928;-56
2024/01/21 08:54:36;;;;;;;;;;;;;;;-0.55;56.08;99096.91;5079702;28;19928;-55
2024/01/21 08:57:25;;;;;;;;;;;;;;;-0.41;56.22;99104.88;5086623;28;20042;-56
2024/01/21 09:00:14;;;;;;;;;;;;;;;-0.37;55.56;99122.13;5087291;28;19976;-55
2024/01/21 09:03:03;;;;;;;;;;;;;;;-0.26;55.59;99137.50;5083323;28;19963;-59
2024/01/21 09:05:51;;;;;;;;;;;;;;;-0.19;54.88;99127.59;5085469;28;19941;-56
2024/01/21 09:08:41;;;;;;;;;;;;;;;-0.03;55.45;99127.09;5086665;28;19920;-55
2024/01/21 09:11:28;;;;;;;;;;;;;;;-0.12;55.70;99123.03;5086308;28;20053;-54
2024/01/21 09:14:18;;;;;;;;;;;;;;;0.06;54.85;99113.53;5083360;28;19928;-55
2024/01/21 09:17:06;;;;;;;;;;;;;;;0.18;54.53;99103.78;5085795;28;19942;-55
2024/01/21 09:19:54;;;;;;;;;;;;;;;0.30;54.23;99109.25;5085161;28;19927;-59
2024/01/21 09:22:42;;;;;;;;;;;;;;;0.31;53.92;99122.38;5090501;28;19920;-55
2024/01/21 09:25:31;;;;;;;;;;;;;;;0.41;54.37;99125.41;5088947;28;20059;-55
2024/01/21 09:28:19;;;;;;;;;;;;;;;0.24;53.90;99110.94;5093543;28;20357;-54
2024/01/21 09:31:08;;;;;;;;;;;;;;;0.30;53.70;99110.06;5090816;28;20039;-55
2024/01/21 09:33:56;;;;;;;;;;;;;;;0.42;54.14;99119.03;5075606;28;19921;-55
2024/01/21 09:36:45;;;;;;;;;;;;;;;0.57;53.95;99124.06;5084956;28;19920;-55
2024/01/21 09:39:34;;;;;;;;;;;;;;;0.56;54.17;99116.28;5089910;28;19928;-56
2024/01/21 09:42:23;;;;;;;;;;;;;;;0.63;54.42;99114.34;5089763;28;20011;-55
2024/01/21 09:45:11;;;;;;;;;;;;;;;0.71;52.96;99138.19;5084221;28;20345;-55
2024/01/21 09:47:59;;;;;;;;;;;;;;;0.71;53.38;99135.50;5089452;28;19973;-57
2024/01/21 09:50:48;;;;;;;;;;;;;;;0.90;53.60;99150.56;5083110;28;19946;-55
2024/01/21 09:53:39;;;;;;;;;;;;;;;1.11;53.03;99162.75;5088915;28;20269;-56
2024/01/21 09:56:27;;;;;;;;;;;;;;;1.11;53.08;99180.66;5090005;28;19930;-56
2024/01/21 09:59:16;;;;;;;;;;;;;;;1.12;52.74;99163.56;5085521;28;19924;-57
2024/01/21 10:02:05;;;;;;;;;;;;;;;1.18;52.23;99154.69;5087411;28;19920;-55
2024/01/21 10:04:54;;;;;;;;;;;;;;;1.13;52.24;99165.22;5086855;28;20395;-55
2024/01/21 10:07:42;;;;;;;;;;;;;;;1.27;52.28;99166.72;5090196;28;19920;-58
2024/01/21 10:10:30;;;;;;;;;;;;;;;1.26;52.42;99157.06;5090535;28;19986;-55
2024/01/21 10:13:18;;;;;;;;;;;;;;;1.35;51.45;99162.97;5090575;28;20377;-60
2024/01/21 10:16:07;;;;;;;;;;;;;;;1.42;51.07;99164.53;5090308;28;19959;-55
2024/01/21 10:18:56;;;;;;;;;;;;;;;1.42;52.65;99166.38;5084882;28;19920;-54
2024/01/21 10:21:44;;;;;;;;;;;;;;;1.38;52.05;99163.31;5086537;28;19927;-55
2024/01/21 10:24:32;;;;;;;;;;;;;;;1.36;51.60;99156.56;5082669;28;19928;-55
2024/01/21 10:27:21;;;;;;;;;;;;;;;1.41;52.62;99156.72;5081908;28;20018;-55
2024/01/21 10:30:10;;;;;;;;;;;;;;;1.57;52.41;99146.22;5092146;28;19977;-55
2024/01/21 10:32:59;;;;;;;;;;;;;;;1.60;50.90;99144.13;5085468;28;19920;-55
2024/01/21 10:35:48;;;;;;;;;;;;;;;1.56;51.11;99138.44;5089465;28;19920;-54
2024/01/21 10:38:37;;;;;;;;;;;;;;;1.75;51.24;99131.19;5090295;28;20032;-55
2024/01/21 10:41:26;;;;;;;;;;;;;;;1.78;50.98;99133.44;5087407;28;20297;-56
2024/01/21 10:44:14;;;;;;;;;;;;;;;1.64;52.10;99135.44;5091696;28;20373;-55
2024/01/21 10:47:02;;;;;;;;;;;;;;;1.81;51.66;99135.66;5087945;28;19974;-59
2024/01/21 10:49:51;;;;;;;;;;;;;;;1.84;51.71;99145.94;5090811;28;19939;-55
2024/01/21 10:52:40;;;;;;;;;;;;;;;1.83;50.82;99138.94;5092308;28;19924;-56
2024/01/21 10:55:28;;;;;;;;;;;;;;;1.93;50.63;99133.88;5089151;28;19920;-56
2024/01/21 10:58:17;;;;;;;;;;;;;;;1.91;49.44;99133.25;5084331;28;20291;-55
2024/01/21 11:01:06;;;;;;;;;;;;;;;1.81;51.45;99130.28;5089569;28;19921;-55
2024/01/21 11:04:03;;;;;;;;;;;;;;;1.96;50.78;99132.59;5088537;28;19920;-56
2024/01/21 11:06:53;;;;;;;;;;;;;;;2.01;51.03;99136.22;5085591;28;20007;-56
2024/01/21 11:09:41;;;;;;;;;;;;;;;2.01;50.70;99127.38;5086757;28;19920;-60
2024/01/21 11:12:30;;;;;;;;;;;;;;;1.96;50.99;99128.03;5090534;28;20380;-56
2024/01/21 11:15:27;;;;;;;;;;;;;;;1.88;50.94;99139.09;5078243;28;19932;-55
2024/01/21 11:18:15;;;;;;;;;;;;;;;1.93;51.90;99147.28;5085261;28;20289;-55
2024/01/21 11:21:04;;;;;;;;;;;;;;;2.17;50.57;99150.88;5089086;28;20011;-56
2024/01/21 11:24:00;;;;;;;;;;;;;;;2.10;50.61;99158.19;5082667;28;19920;-55
2024/01/21 11:26:48;;;;;;;;;;;;;;;2.20;49.58;99157.66;5085715;28;19928;-55
2024/01/21 11:29:36;;;;;;;;;;;;;;;2.21;50.43;99153.94;5090291;28;19920;-55
2024/01/21 11:32:25;;;;;;;;;;;;;;;2.35;49.78;99144.69;5090106;28;20032;-55
2024/01/21 11:35:14;;;;;;;;;;;;;;;2.41;49.57;99162.53;5087318;28;19959;-55
2024/01/21 11:38:02;;;;;;;;;;;;;;;2.43;50.69;99170.34;5089514;28;20411;-55
2024/01/21 11:41:01;;;;;;;;;;;;;;;2.48;51.17;99176.66;5090284;28;19928;-57
2024/01/21 11:43:49;;;;;;;;;;;;;;;2.47;48.53;99169.66;5088583;28;19974;-55
2024/01/21 11:46:37;;;;;;;;;;;;;;;2.49;49.23;99178.28;5092499;28;20377;-57
2024/01/21 11:49:25;;;;;;;;;;;;;;;2.44;49.11;99145.16;5092586;28;19927;-55
2024/01/21 11:52:17;;;;;;;;;;;;;;;2.62;49.56;99137.88;5086968;28;20363;-57
2024/01/21 11:55:06;;;;;;;;;;;;;;;2.86;48.58;99156.69;5093989;28;19920;-56
2024/01/21 11:57:55;;;;;;;;;;;;;;;2.94;47.98;99148.31;5087690;28;19926;-55
2024/01/21 12:00:43;;;;;;;;;;;;;;;2.95;47.81;99154.50;5087575;28;20373;-55
2024/01/21 12:03:31;;;;;;;;;;;;;;;2.80;48.33;99171.03;5084698;28;19942;-55
2024/01/21 12:06:20;;;;;;;;;;;;;;;2.84;48.84;99166.84;5087592;28;19928;-56
2024/01/21 12:09:08;;;;;;;;;;;;;;;2.87;48.26;99171.75;5085905;28;20392;-56
2024/01/21 12:11:58;;;;;;;;;;;;;;;2.82;47.99;99180.50;5084689;28;19920;-54
2024/01/21 12:14:49;;;;;;;;;;;;;;;2.89;47.77;99177.72;5085876;28;19925;-55
2024/01/21 12:17:40;;;;;;;;;;;;;;;2.92;47.40;99165.69;5092922;28;20376;-56
2024/01/21 12:20:28;;;;;;;;;;;;;;;3.08;47.93;99167.69;5088927;28;19920;-56
2024/01/21 12:23:19;;;;;;;;;;;;;;;3.17;48.20;99160.13;5083498;28;20057;-56
2024/01/21 12:26:07;;;;;;;;;;;;;;;3.12;47.75;99161.63;5087970;28;19927;-55
2024/01/21 12:28:56;;;;;;;;;;;;;;;3.20;48.42;99149.75;5089197;28;19975;-56
2024/01/21 12:31:45;;;;;;;;;;;;;;;3.20;48.76;99136.31;5087571;28;19927;-55
2024/01/21 12:34:34;;;;;;;;;;;;;;;3.36;48.70;99132.94;5092654;28;19975;-60
2024/01/21 12:37:22;;;;;;;;;;;;;;;3.38;49.07;99136.19;5096174;28;20011;-56
2024/01/21 12:40:11;;;;;;;;;;;;;;;3.50;48.36;99133.50;5089065;28;19921;-55
2024/01/21 12:42:59;;;;;;;;;;;;;;;3.53;47.72;99119.59;5090325;28;20330;-59
2024/01/21 12:45:47;;;;;;;;;;;;;;;3.41;47.95;99129.56;5087550;28;19924;-55
2024/01/21 12:48:38;;;;;;;;;;;;;;;3.46;47.92;99126.13;5087606;28;19920;-55
2024/01/21 12:51:28;;;;;;;;;;;;;;;3.66;48.09;99113.13;5085275;28;19932;-56
2024/01/21 12:54:16;;;;;;;;;;;;;;;3.65;48.67;99109.63;5090343;28;19927;-56
2024/01/21 12:57:04;;;;;;;;;;;;;;;3.65;48.05;99098.88;5087779;28;20273;-55
2024/01/21 12:59:52;;;;;;;;;;;;;;;3.59;48.50;99099.84;5091139;28;20025;-55
2024/01/21 13:02:40;;;;;;;;;;;;;;;3.62;49.09;99096.69;5090643;28;20057;-55
2024/01/21 13:05:30;;;;;;;;;;;;;;;3.65;47.57;99098.06;5091176;28;20500;-54
2024/01/21 13:08:18;;;;;;;;;;;;;;;3.58;48.73;99087.47;5082714;28;20069;-55
2024/01/21 13:11:06;;;;;;;;;;;;;;;3.60;47.67;99082.66;5092238;28;19927;-55
2024/01/21 13:13:54;;;;;;;;;;;;;;;3.63;47.87;99067.94;5090231;28;19927;-55
2024/01/21 13:16:42;;;;;;;;;;;;;;;3.65;48.71;99072.00;5092413;28;19984;-56
2024/01/21 13:19:30;;;;;;;;;;;;;;;3.63;48.96;99071.44;5090316;28;19919;-55
2024/01/21 13:22:19;;;;;;;;;;;;;;;3.73;47.88;99068.16;5087298;28;20366;-56
2024/01/21 13:25:07;;;;;;;;;;;;;;;3.68;47.60;99079.63;5086528;28;19939;-58
2024/01/21 13:28:06;;;;;;;;;;;;;;;3.74;47.80;99079.72;5090796;28;19920;-56
2024/01/21 13:30:55;;;;;;;;;;;;;;;3.77;48.35;99069.28;5083318;28;19927;-55
2024/01/21 13:33:43;;;;;;;;;;;;;;;3.87;48.71;99076.75;5090161;28;19926;-56
2024/01/21 13:36:32;;;;;;;;;;;;;;;3.91;47.94;99085.97;5092443;28;20044;-56
2024/01/21 13:39:24;;;;;;;;;;;;;;;4.03;47.77;99067.91;5090435;28;20003;-54
2024/01/21 13:42:13;;;;;;;;;;;;;;;3.99;48.70;99071.31;5090909;28;20385;-54
2024/01/21 13:45:02;;;;;;;;;;;;;;;3.93;48.19;99065.03;5086152;28;19927;-55
2024/01/21 13:47:50;;;;;;;;;;;;;;;3.99;48.32;99056.00;5084256;28;20386;-55
2024/01/21 13:50:38;;;;;;;;;;;;;;;4.08;47.56;99034.91;5088706;28;19920;-55
2024/01/21 13:53:29;;;;;;;;;;;;;;;4.17;47.75;99037.00;5088653;28;19967;-56
2024/01/21 13:56:19;;;;;;;;;;;;;;;4.16;46.66;99029.97;5082796;28;20682;-55
2024/01/21 13:59:07;;;;;;;;;;;;;;;4.09;47.25;99031.16;5091196;28;20373;-54
2024/01/21 14:01:55;;;;;;;;;;;;;;;3.96;48.20;99029.59;5084879;28;20007;-57
2024/01/21 14:04:48;;;;;;;;;;;;;;;4.00;47.67;99029.94;5081621;28;20365;-55
2024/01/21 14:07:36;;;;;;;;;;;;;;;4.00;48.55;99043.41;5090277;28;19927;-55
2024/01/21 14:10:25;;;;;;;;;;;;;;;3.98;49.02;99032.84;5085719;28;19924;-56
2024/01/21 14:13:15;;;;;;;;;;;;;;;4.01;48.62;99037.78;5077443;28;19920;-56
2024/01/21 14:16:03;;;;;;;;;;;;;;;4.01;48.98;99027.00;5082768;28;19974;-54
2024/01/21 14:18:54;;;;;;;;;;;;;;;4.07;48.74;99019.84;5081149;28;20289;-57
2024/01/21 14:21:42;;;;;;;;;;;;;;;4.04;48.71;99029.19;5082870;28;19935;-56
2024/01/21 14:24:31;;;;;;;;;;;;;;;4.05;48.83;99036.25;5083602;28;19920;-55
2024/01/21 14:27:19;;;;;;;;;;;;;;;4.05;48.82;99041.63;5089366;28;19920;-55
2024/01/21 14:30:12;;;;;;;;;;;;;;;4.15;48.24;99036.41;5091365;28;19920;-54
2024/01/21 14:33:00;;;;;;;;;;;;;;;4.17;48.45;99045.06;5089647;28;19920;-54
2024/01/21 14:35:48;;;;;;;;;;;;;;;4.14;47.83;99050.91;5088457;28;19920;-56
2024/01/21 14:38:37;;;;;;;;;;;;;;;4.09;48.61;99050.81;5082787;28;19920;-55
2024/01/21 14:42:41;;;;;;;;;;;;;;;4.02;48.35;99066.28;5122574;27;19916;-57